sensor_id;sensor_type;location;lat;lon;timestamp;P1;durP1;ratioP1;P2;durP2;ratioP2
19903;SDS011;10114;50.970;4.962;2023-05-14T00:02:22;17.95;;;12.38;;
19903;SDS011;10114;50.970;4.962;2023-05-14T00:04:48;18.75;;;12.13;;
19903;SDS011;10114;50.970;4.962;2023-05-14T00:07:14;20.60;;;12.73;;
19903;SDS011;10114;50.970;4.962;2023-05-14T00:09:40;18.52;;;13.02;;
19903;SDS011;10114;50.970;4.962;2023-05-14T00:12:07;20.20;;;12.05;;
19903;SDS011;10114;50.970;4.962;2023-05-14T00:14:33;22.27;;;13.10;;
19903;SDS011;10114;50.970;4.962;2023-05-14T00:16:59;18.63;;;13.30;;
19903;SDS011;10114;50.970;4.962;2023-05-14T00:19:25;17.40;;;13.13;;
19903;SDS011;10114;50.970;4.962;2023-05-14T00:21:51;22.33;;;14.52;;
19903;SDS011;10114;50.970;4.962;2023-05-14T00:24:17;20.65;;;14.02;;
19903;SDS011;10114;50.970;4.962;2023-05-14T00:26:43;23.33;;;15.43;;
19903;SDS011;10114;50.970;4.962;2023-05-14T00:29:09;22.10;;;14.60;;
19903;SDS011;10114;50.970;4.962;2023-05-14T00:31:35;22.77;;;14.77;;
19903;SDS011;10114;50.970;4.962;2023-05-14T00:34:01;24.17;;;15.90;;
19903;SDS011;10114;50.970;4.962;2023-05-14T00:36:27;27.02;;;15.95;;
19903;SDS011;10114;50.970;4.962;2023-05-14T00:38:53;25.13;;;15.90;;
19903;SDS011;10114;50.970;4.962;2023-05-14T00:41:19;27.63;;;16.17;;
19903;SDS011;10114;50.970;4.962;2023-05-14T00:43:46;25.20;;;15.75;;
19903;SDS011;10114;50.970;4.962;2023-05-14T00:46:12;26.55;;;16.60;;
19903;SDS011;10114;50.970;4.962;2023-05-14T00:48:39;25.00;;;16.05;;
19903;SDS011;10114;50.970;4.962;2023-05-14T00:51:05;23.67;;;16.77;;
19903;SDS011;10114;50.970;4.962;2023-05-14T00:53:31;27.45;;;17.52;;
19903;SDS011;10114;50.970;4.962;2023-05-14T00:55:57;25.25;;;16.80;;
19903;SDS011;10114;50.970;4.962;2023-05-14T00:58:23;27.55;;;17.52;;
19903;SDS011;10114;50.970;4.962;2023-05-14T01:00:50;30.60;;;17.23;;
19903;SDS011;10114;50.970;4.962;2023-05-14T01:03:16;31.75;;;17.17;;
19903;SDS011;10114;50.970;4.962;2023-05-14T01:06:29;31.38;;;18.90;;
19903;SDS011;10114;50.970;4.962;2023-05-14T01:08:35;25.85;;;18.20;;
19903;SDS011;10114;50.970;4.962;2023-05-14T01:11:10;28.88;;;18.83;;
19903;SDS011;10114;50.970;4.962;2023-05-14T01:16:04;29.13;;;18.90;;
19903;SDS011;10114;50.970;4.962;2023-05-14T01:18:34;28.30;;;20.20;;
19903;SDS011;10114;50.970;4.962;2023-05-14T01:21:00;30.52;;;20.20;;
19903;SDS011;10114;50.970;4.962;2023-05-14T01:23:26;31.27;;;21.45;;
19903;SDS011;10114;50.970;4.962;2023-05-14T01:25:52;35.95;;;21.63;;
19903;SDS011;10114;50.970;4.962;2023-05-14T01:28:19;38.88;;;22.88;;
19903;SDS011;10114;50.970;4.962;2023-05-14T01:30:56;35.78;;;23.02;;
19903;SDS011;10114;50.970;4.962;2023-05-14T01:33:24;39.70;;;23.27;;
19903;SDS011;10114;50.970;4.962;2023-05-14T01:35:50;34.35;;;21.98;;
19903;SDS011;10114;50.970;4.962;2023-05-14T01:38:17;36.47;;;24.27;;
19903;SDS011;10114;50.970;4.962;2023-05-14T01:40:45;40.70;;;25.80;;
19903;SDS011;10114;50.970;4.962;2023-05-14T01:43:11;39.75;;;25.27;;
19903;SDS011;10114;50.970;4.962;2023-05-14T01:45:37;36.80;;;24.95;;
19903;SDS011;10114;50.970;4.962;2023-05-14T01:48:04;39.65;;;26.00;;
19903;SDS011;10114;50.970;4.962;2023-05-14T01:50:30;38.85;;;27.00;;
19903;SDS011;10114;50.970;4.962;2023-05-14T01:52:56;48.75;;;27.33;;
19903;SDS011;10114;50.970;4.962;2023-05-14T01:55:22;43.45;;;27.90;;
19903;SDS011;10114;50.970;4.962;2023-05-14T01:57:49;51.45;;;30.88;;
19903;SDS011;10114;50.970;4.962;2023-05-14T02:00:15;51.78;;;30.85;;
19903;SDS011;10114;50.970;4.962;2023-05-14T02:02:41;51.65;;;32.75;;
19903;SDS011;10114;50.970;4.962;2023-05-14T02:05:07;54.72;;;31.77;;
19903;SDS011;10114;50.970;4.962;2023-05-14T02:07:34;53.17;;;32.05;;
19903;SDS011;10114;50.970;4.962;2023-05-14T02:10:00;53.40;;;33.88;;
19903;SDS011;10114;50.970;4.962;2023-05-14T02:12:26;59.95;;;33.95;;
19903;SDS011;10114;50.970;4.962;2023-05-14T02:14:52;55.83;;;34.85;;
19903;SDS011;10114;50.970;4.962;2023-05-14T02:17:18;56.72;;;34.45;;
19903;SDS011;10114;50.970;4.962;2023-05-14T02:19:44;57.90;;;34.95;;
19903;SDS011;10114;50.970;4.962;2023-05-14T02:22:10;64.05;;;35.90;;
19903;SDS011;10114;50.970;4.962;2023-05-14T02:24:36;68.70;;;38.55;;
19903;SDS011;10114;50.970;4.962;2023-05-14T02:27:03;65.43;;;36.53;;
19903;SDS011;10114;50.970;4.962;2023-05-14T02:29:29;68.57;;;37.30;;
19903;SDS011;10114;50.970;4.962;2023-05-14T02:31:55;71.93;;;39.58;;
19903;SDS011;10114;50.970;4.962;2023-05-14T02:34:21;69.38;;;37.35;;
19903;SDS011;10114;50.970;4.962;2023-05-14T02:36:47;65.03;;;38.90;;
19903;SDS011;10114;50.970;4.962;2023-05-14T02:39:14;69.35;;;38.45;;
19903;SDS011;10114;50.970;4.962;2023-05-14T02:41:41;67.93;;;40.22;;
19903;SDS011;10114;50.970;4.962;2023-05-14T02:44:07;68.03;;;38.20;;
19903;SDS011;10114;50.970;4.962;2023-05-14T02:46:33;70.22;;;38.88;;
19903;SDS011;10114;50.970;4.962;2023-05-14T02:48:59;74.88;;;40.00;;
19903;SDS011;10114;50.970;4.962;2023-05-14T02:51:26;74.57;;;39.65;;
19903;SDS011;10114;50.970;4.962;2023-05-14T02:53:52;78.68;;;41.03;;
19903;SDS011;10114;50.970;4.962;2023-05-14T02:56:18;76.18;;;42.17;;
19903;SDS011;10114;50.970;4.962;2023-05-14T02:58:45;79.82;;;42.17;;
19903;SDS011;10114;50.970;4.962;2023-05-14T03:01:11;81.80;;;43.45;;
19903;SDS011;10114;50.970;4.962;2023-05-14T03:03:37;84.57;;;45.17;;
19903;SDS011;10114;50.970;4.962;2023-05-14T03:06:03;82.05;;;45.38;;
19903;SDS011;10114;50.970;4.962;2023-05-14T03:08:29;84.95;;;44.83;;
19903;SDS011;10114;50.970;4.962;2023-05-14T03:10:55;88.78;;;45.70;;
19903;SDS011;10114;50.970;4.962;2023-05-14T03:13:21;91.82;;;46.63;;
19903;SDS011;10114;50.970;4.962;2023-05-14T03:15:47;87.38;;;46.75;;
19903;SDS011;10114;50.970;4.962;2023-05-14T03:18:18;88.20;;;46.10;;
19903;SDS011;10114;50.970;4.962;2023-05-14T03:20:44;93.40;;;46.47;;
19903;SDS011;10114;50.970;4.962;2023-05-14T03:23:10;91.53;;;49.42;;
19903;SDS011;10114;50.970;4.962;2023-05-14T03:25:36;88.28;;;46.33;;
19903;SDS011;10114;50.970;4.962;2023-05-14T03:28:02;93.72;;;48.25;;
19903;SDS011;10114;50.970;4.962;2023-05-14T03:30:28;87.50;;;48.03;;
19903;SDS011;10114;50.970;4.962;2023-05-14T03:32:54;96.32;;;49.40;;
19903;SDS011;10114;50.970;4.962;2023-05-14T03:35:20;91.55;;;47.80;;
19903;SDS011;10114;50.970;4.962;2023-05-14T03:37:46;88.63;;;47.22;;
19903;SDS011;10114;50.970;4.962;2023-05-14T03:40:13;88.95;;;45.20;;
19903;SDS011;10114;50.970;4.962;2023-05-14T03:42:39;91.82;;;47.13;;
19903;SDS011;10114;50.970;4.962;2023-05-14T03:45:05;93.60;;;47.97;;
19903;SDS011;10114;50.970;4.962;2023-05-14T03:47:32;94.30;;;47.67;;
19903;SDS011;10114;50.970;4.962;2023-05-14T03:49:58;98.32;;;51.88;;
19903;SDS011;10114;50.970;4.962;2023-05-14T03:52:24;104.68;;;49.38;;
19903;SDS011;10114;50.970;4.962;2023-05-14T03:54:50;108.25;;;52.03;;
19903;SDS011;10114;50.970;4.962;2023-05-14T03:57:16;103.00;;;50.65;;
19903;SDS011;10114;50.970;4.962;2023-05-14T03:59:42;101.32;;;50.95;;
19903;SDS011;10114;50.970;4.962;2023-05-14T04:02:08;104.90;;;52.35;;
19903;SDS011;10114;50.970;4.962;2023-05-14T04:04:34;105.53;;;53.67;;
19903;SDS011;10114;50.970;4.962;2023-05-14T04:07:00;106.78;;;52.30;;
19903;SDS011;10114;50.970;4.962;2023-05-14T04:09:26;114.13;;;55.08;;
19903;SDS011;10114;50.970;4.962;2023-05-14T04:11:52;118.65;;;53.72;;
19903;SDS011;10114;50.970;4.962;2023-05-14T04:14:18;114.63;;;53.78;;
19903;SDS011;10114;50.970;4.962;2023-05-14T04:16:44;120.82;;;54.92;;
19903;SDS011;10114;50.970;4.962;2023-05-14T04:19:10;118.78;;;56.25;;
19903;SDS011;10114;50.970;4.962;2023-05-14T04:21:36;122.30;;;54.83;;
19903;SDS011;10114;50.970;4.962;2023-05-14T04:24:02;117.80;;;54.45;;
19903;SDS011;10114;50.970;4.962;2023-05-14T04:26:28;110.75;;;54.25;;
19903;SDS011;10114;50.970;4.962;2023-05-14T04:28:54;116.70;;;54.08;;
19903;SDS011;10114;50.970;4.962;2023-05-14T04:31:21;118.13;;;57.22;;
19903;SDS011;10114;50.970;4.962;2023-05-14T04:33:46;124.72;;;54.38;;
19903;SDS011;10114;50.970;4.962;2023-05-14T04:36:13;121.47;;;55.22;;
19903;SDS011;10114;50.970;4.962;2023-05-14T04:38:40;122.07;;;58.22;;
19903;SDS011;10114;50.970;4.962;2023-05-14T04:41:06;123.63;;;57.83;;
19903;SDS011;10114;50.970;4.962;2023-05-14T04:43:32;126.07;;;57.50;;
19903;SDS011;10114;50.970;4.962;2023-05-14T04:45:58;126.88;;;58.58;;
19903;SDS011;10114;50.970;4.962;2023-05-14T04:48:24;124.30;;;57.75;;
19903;SDS011;10114;50.970;4.962;2023-05-14T04:50:50;112.15;;;52.72;;
19903;SDS011;10114;50.970;4.962;2023-05-14T04:53:17;123.18;;;57.85;;
19903;SDS011;10114;50.970;4.962;2023-05-14T04:55:43;128.43;;;58.50;;
19903;SDS011;10114;50.970;4.962;2023-05-14T04:58:09;126.07;;;60.03;;
19903;SDS011;10114;50.970;4.962;2023-05-14T05:00:35;121.13;;;53.70;;
19903;SDS011;10114;50.970;4.962;2023-05-14T05:03:01;127.57;;;57.05;;
19903;SDS011;10114;50.970;4.962;2023-05-14T05:05:27;118.13;;;56.42;;
19903;SDS011;10114;50.970;4.962;2023-05-14T05:07:53;131.32;;;56.53;;
19903;SDS011;10114;50.970;4.962;2023-05-14T05:10:19;114.60;;;56.70;;
19903;SDS011;10114;50.970;4.962;2023-05-14T05:12:45;116.88;;;55.80;;
19903;SDS011;10114;50.970;4.962;2023-05-14T05:15:11;109.35;;;51.80;;
19903;SDS011;10114;50.970;4.962;2023-05-14T05:17:37;111.00;;;51.72;;
19903;SDS011;10114;50.970;4.962;2023-05-14T05:20:04;114.22;;;51.95;;
19903;SDS011;10114;50.970;4.962;2023-05-14T05:22:33;104.68;;;49.35;;
19903;SDS011;10114;50.970;4.962;2023-05-14T05:25:00;114.97;;;51.42;;
19903;SDS011;10114;50.970;4.962;2023-05-14T05:27:29;109.03;;;51.30;;
19903;SDS011;10114;50.970;4.962;2023-05-14T05:29:55;118.00;;;51.75;;
19903;SDS011;10114;50.970;4.962;2023-05-14T05:32:21;118.50;;;52.33;;
19903;SDS011;10114;50.970;4.962;2023-05-14T05:34:47;101.85;;;48.30;;
19903;SDS011;10114;50.970;4.962;2023-05-14T05:37:13;98.00;;;47.83;;
19903;SDS011;10114;50.970;4.962;2023-05-14T05:39:39;98.78;;;46.60;;
19903;SDS011;10114;50.970;4.962;2023-05-14T05:42:05;102.35;;;51.17;;
19903;SDS011;10114;50.970;4.962;2023-05-14T05:44:32;98.40;;;48.53;;
19903;SDS011;10114;50.970;4.962;2023-05-14T05:46:58;97.70;;;46.47;;
19903;SDS011;10114;50.970;4.962;2023-05-14T05:49:24;96.07;;;46.78;;
19903;SDS011;10114;50.970;4.962;2023-05-14T05:51:50;90.93;;;47.35;;
19903;SDS011;10114;50.970;4.962;2023-05-14T05:54:16;91.63;;;44.78;;
19903;SDS011;10114;50.970;4.962;2023-05-14T05:56:42;82.88;;;43.10;;
19903;SDS011;10114;50.970;4.962;2023-05-14T05:59:08;86.95;;;43.47;;
19903;SDS011;10114;50.970;4.962;2023-05-14T06:01:34;78.93;;;41.95;;
19903;SDS011;10114;50.970;4.962;2023-05-14T06:04:00;83.50;;;43.45;;
19903;SDS011;10114;50.970;4.962;2023-05-14T06:06:28;73.47;;;40.17;;
19903;SDS011;10114;50.970;4.962;2023-05-14T06:08:56;68.65;;;36.05;;
19903;SDS011;10114;50.970;4.962;2023-05-14T06:11:22;62.38;;;37.17;;
19903;SDS011;10114;50.970;4.962;2023-05-14T06:13:48;64.93;;;35.85;;
19903;SDS011;10114;50.970;4.962;2023-05-14T06:16:14;57.80;;;33.53;;
19903;SDS011;10114;50.970;4.962;2023-05-14T06:18:40;52.55;;;30.70;;
19903;SDS011;10114;50.970;4.962;2023-05-14T06:21:06;49.42;;;31.23;;
19903;SDS011;10114;50.970;4.962;2023-05-14T06:23:32;47.28;;;28.13;;
19903;SDS011;10114;50.970;4.962;2023-05-14T06:25:58;46.35;;;28.58;;
19903;SDS011;10114;50.970;4.962;2023-05-14T06:28:24;47.08;;;27.55;;
19903;SDS011;10114;50.970;4.962;2023-05-14T06:30:50;57.47;;;29.70;;
19903;SDS011;10114;50.970;4.962;2023-05-14T06:33:18;46.00;;;28.08;;
19903;SDS011;10114;50.970;4.962;2023-05-14T06:35:45;53.58;;;29.23;;
19903;SDS011;10114;50.970;4.962;2023-05-14T06:38:11;54.28;;;29.50;;
19903;SDS011;10114;50.970;4.962;2023-05-14T06:40:37;51.38;;;29.23;;
19903;SDS011;10114;50.970;4.962;2023-05-14T06:43:03;51.00;;;30.17;;
19903;SDS011;10114;50.970;4.962;2023-05-14T06:45:30;45.05;;;28.48;;
19903;SDS011;10114;50.970;4.962;2023-05-14T06:47:56;51.08;;;28.63;;
19903;SDS011;10114;50.970;4.962;2023-05-14T06:50:22;48.03;;;26.80;;
19903;SDS011;10114;50.970;4.962;2023-05-14T06:52:48;48.55;;;28.45;;
19903;SDS011;10114;50.970;4.962;2023-05-14T06:55:14;54.35;;;28.83;;
19903;SDS011;10114;50.970;4.962;2023-05-14T06:57:40;51.00;;;28.40;;
19903;SDS011;10114;50.970;4.962;2023-05-14T07:00:06;45.58;;;26.17;;
19903;SDS011;10114;50.970;4.962;2023-05-14T07:02:33;48.92;;;26.52;;
19903;SDS011;10114;50.970;4.962;2023-05-14T07:04:59;50.92;;;28.80;;
19903;SDS011;10114;50.970;4.962;2023-05-14T07:07:25;53.95;;;26.58;;
19903;SDS011;10114;50.970;4.962;2023-05-14T07:09:51;54.42;;;28.83;;
19903;SDS011;10114;50.970;4.962;2023-05-14T07:12:17;51.47;;;28.67;;
19903;SDS011;10114;50.970;4.962;2023-05-14T07:14:43;53.03;;;28.65;;
19903;SDS011;10114;50.970;4.962;2023-05-14T07:17:10;54.30;;;28.65;;
19903;SDS011;10114;50.970;4.962;2023-05-14T07:19:36;46.67;;;26.98;;
19903;SDS011;10114;50.970;4.962;2023-05-14T07:22:02;53.13;;;28.98;;
19903;SDS011;10114;50.970;4.962;2023-05-14T07:24:28;51.15;;;28.75;;
19903;SDS011;10114;50.970;4.962;2023-05-14T07:26:54;51.38;;;28.45;;
19903;SDS011;10114;50.970;4.962;2023-05-14T07:29:21;50.05;;;27.08;;
19903;SDS011;10114;50.970;4.962;2023-05-14T07:31:49;44.08;;;26.20;;
19903;SDS011;10114;50.970;4.962;2023-05-14T07:34:15;42.70;;;25.67;;
19903;SDS011;10114;50.970;4.962;2023-05-14T07:36:41;41.47;;;25.35;;
19903;SDS011;10114;50.970;4.962;2023-05-14T07:39:07;38.13;;;23.48;;
19903;SDS011;10114;50.970;4.962;2023-05-14T07:41:33;42.92;;;24.08;;
19903;SDS011;10114;50.970;4.962;2023-05-14T07:43:59;41.58;;;22.52;;
19903;SDS011;10114;50.970;4.962;2023-05-14T07:46:25;40.08;;;24.05;;
19903;SDS011;10114;50.970;4.962;2023-05-14T07:48:51;37.70;;;21.05;;
19903;SDS011;10114;50.970;4.962;2023-05-14T07:51:17;38.00;;;23.33;;
19903;SDS011;10114;50.970;4.962;2023-05-14T07:53:43;41.40;;;22.23;;
19903;SDS011;10114;50.970;4.962;2023-05-14T07:56:09;38.13;;;23.17;;
19903;SDS011;10114;50.970;4.962;2023-05-14T07:58:35;41.72;;;23.83;;
19903;SDS011;10114;50.970;4.962;2023-05-14T08:01:01;39.38;;;23.75;;
19903;SDS011;10114;50.970;4.962;2023-05-14T08:03:31;40.47;;;24.30;;
19903;SDS011;10114;50.970;4.962;2023-05-14T08:05:57;44.92;;;25.27;;
19903;SDS011;10114;50.970;4.962;2023-05-14T08:08:23;43.28;;;23.15;;
19903;SDS011;10114;50.970;4.962;2023-05-14T08:10:50;41.50;;;24.70;;
19903;SDS011;10114;50.970;4.962;2023-05-14T08:13:16;47.58;;;26.20;;
19903;SDS011;10114;50.970;4.962;2023-05-14T08:15:42;38.08;;;22.63;;
19903;SDS011;10114;50.970;4.962;2023-05-14T08:18:08;38.65;;;21.73;;
19903;SDS011;10114;50.970;4.962;2023-05-14T08:20:34;42.17;;;23.15;;
19903;SDS011;10114;50.970;4.962;2023-05-14T08:23:00;36.22;;;21.83;;
19903;SDS011;10114;50.970;4.962;2023-05-14T08:25:26;42.88;;;24.92;;
19903;SDS011;10114;50.970;4.962;2023-05-14T08:27:52;45.50;;;26.23;;
19903;SDS011;10114;50.970;4.962;2023-05-14T08:30:18;48.25;;;26.15;;
19903;SDS011;10114;50.970;4.962;2023-05-14T08:32:45;51.72;;;25.70;;
19903;SDS011;10114;50.970;4.962;2023-05-14T08:35:11;54.40;;;28.60;;
19903;SDS011;10114;50.970;4.962;2023-05-14T08:37:37;49.10;;;28.13;;
19903;SDS011;10114;50.970;4.962;2023-05-14T08:40:03;45.20;;;25.60;;
19903;SDS011;10114;50.970;4.962;2023-05-14T08:42:32;49.25;;;25.77;;
19903;SDS011;10114;50.970;4.962;2023-05-14T08:45:02;45.15;;;24.13;;
19903;SDS011;10114;50.970;4.962;2023-05-14T08:47:28;35.13;;;19.73;;
19903;SDS011;10114;50.970;4.962;2023-05-14T08:50:04;42.47;;;20.25;;
19903;SDS011;10114;50.970;4.962;2023-05-14T08:52:31;34.42;;;19.48;;
19903;SDS011;10114;50.970;4.962;2023-05-14T08:54:58;33.88;;;21.27;;
19903;SDS011;10114;50.970;4.962;2023-05-14T08:57:25;34.65;;;20.55;;
19903;SDS011;10114;50.970;4.962;2023-05-14T08:59:51;34.47;;;18.77;;
19903;SDS011;10114;50.970;4.962;2023-05-14T09:02:20;33.80;;;19.70;;
19903;SDS011;10114;50.970;4.962;2023-05-14T09:04:48;32.67;;;19.38;;
19903;SDS011;10114;50.970;4.962;2023-05-14T09:07:15;37.00;;;20.65;;
19903;SDS011;10114;50.970;4.962;2023-05-14T09:09:41;33.95;;;19.88;;
19903;SDS011;10114;50.970;4.962;2023-05-14T09:12:09;33.70;;;19.27;;
19903;SDS011;10114;50.970;4.962;2023-05-14T09:14:35;32.13;;;19.42;;
19903;SDS011;10114;50.970;4.962;2023-05-14T09:17:01;32.08;;;18.35;;
19903;SDS011;10114;50.970;4.962;2023-05-14T09:19:27;31.60;;;19.73;;
19903;SDS011;10114;50.970;4.962;2023-05-14T09:21:55;30.13;;;19.20;;
19903;SDS011;10114;50.970;4.962;2023-05-14T09:24:23;36.47;;;21.08;;
19903;SDS011;10114;50.970;4.962;2023-05-14T09:26:54;30.70;;;19.83;;
19903;SDS011;10114;50.970;4.962;2023-05-14T09:29:20;30.55;;;20.15;;
19903;SDS011;10114;50.970;4.962;2023-05-14T09:31:49;35.25;;;21.45;;
19903;SDS011;10114;50.970;4.962;2023-05-14T09:34:25;33.88;;;20.73;;
19903;SDS011;10114;50.970;4.962;2023-05-14T09:36:58;32.78;;;20.50;;
19903;SDS011;10114;50.970;4.962;2023-05-14T09:39:25;37.35;;;21.60;;
19903;SDS011;10114;50.970;4.962;2023-05-14T09:41:51;32.90;;;20.30;;
19903;SDS011;10114;50.970;4.962;2023-05-14T09:44:18;37.22;;;21.77;;
19903;SDS011;10114;50.970;4.962;2023-05-14T09:46:44;38.67;;;23.85;;
19903;SDS011;10114;50.970;4.962;2023-05-14T09:49:10;36.70;;;22.52;;
19903;SDS011;10114;50.970;4.962;2023-05-14T09:51:37;36.78;;;22.75;;
19903;SDS011;10114;50.970;4.962;2023-05-14T09:54:03;38.53;;;22.17;;
19903;SDS011;10114;50.970;4.962;2023-05-14T09:56:29;34.33;;;21.08;;
19903;SDS011;10114;50.970;4.962;2023-05-14T09:58:55;39.08;;;22.33;;
19903;SDS011;10114;50.970;4.962;2023-05-14T10:01:21;40.67;;;24.55;;
19903;SDS011;10114;50.970;4.962;2023-05-14T10:03:48;39.47;;;22.75;;
19903;SDS011;10114;50.970;4.962;2023-05-14T10:06:15;38.22;;;22.42;;
19903;SDS011;10114;50.970;4.962;2023-05-14T10:08:43;38.20;;;22.58;;
19903;SDS011;10114;50.970;4.962;2023-05-14T10:11:12;38.63;;;23.50;;
19903;SDS011;10114;50.970;4.962;2023-05-14T10:13:39;33.75;;;22.25;;
19903;SDS011;10114;50.970;4.962;2023-05-14T10:18:35;37.90;;;22.45;;
19903;SDS011;10114;50.970;4.962;2023-05-14T10:21:05;36.33;;;21.50;;
19903;SDS011;10114;50.970;4.962;2023-05-14T10:23:32;35.85;;;21.15;;
19903;SDS011;10114;50.970;4.962;2023-05-14T10:25:58;35.47;;;22.55;;
19903;SDS011;10114;50.970;4.962;2023-05-14T10:28:25;35.60;;;22.92;;
19903;SDS011;10114;50.970;4.962;2023-05-14T10:30:51;33.08;;;22.80;;
19903;SDS011;10114;50.970;4.962;2023-05-14T10:33:18;36.00;;;21.75;;
19903;SDS011;10114;50.970;4.962;2023-05-14T10:36:01;34.05;;;21.58;;
19903;SDS011;10114;50.970;4.962;2023-05-14T10:38:31;35.35;;;21.48;;
19903;SDS011;10114;50.970;4.962;2023-05-14T10:41:01;34.58;;;22.15;;
19903;SDS011;10114;50.970;4.962;2023-05-14T10:43:28;33.05;;;21.45;;
19903;SDS011;10114;50.970;4.962;2023-05-14T10:45:55;40.83;;;23.58;;
19903;SDS011;10114;50.970;4.962;2023-05-14T10:48:21;34.88;;;21.83;;
19903;SDS011;10114;50.970;4.962;2023-05-14T10:50:51;33.92;;;21.33;;
19903;SDS011;10114;50.970;4.962;2023-05-14T10:53:17;32.67;;;22.08;;
19903;SDS011;10114;50.970;4.962;2023-05-14T10:55:44;33.15;;;21.17;;
19903;SDS011;10114;50.970;4.962;2023-05-14T10:58:11;43.17;;;21.65;;
19903;SDS011;10114;50.970;4.962;2023-05-14T11:00:37;36.35;;;21.15;;
19903;SDS011;10114;50.970;4.962;2023-05-14T11:03:06;33.92;;;22.13;;
19903;SDS011;10114;50.970;4.962;2023-05-14T11:05:32;33.35;;;21.33;;
19903;SDS011;10114;50.970;4.962;2023-05-14T11:08:01;32.35;;;21.17;;
19903;SDS011;10114;50.970;4.962;2023-05-14T11:10:29;35.00;;;21.48;;
19903;SDS011;10114;50.970;4.962;2023-05-14T11:12:55;35.92;;;21.80;;
19903;SDS011;10114;50.970;4.962;2023-05-14T11:15:23;35.65;;;22.83;;
19903;SDS011;10114;50.970;4.962;2023-05-14T11:17:50;30.75;;;20.88;;
19903;SDS011;10114;50.970;4.962;2023-05-14T11:20:17;33.45;;;21.05;;
19903;SDS011;10114;50.970;4.962;2023-05-14T11:22:44;33.10;;;20.98;;
19903;SDS011;10114;50.970;4.962;2023-05-14T11:25:10;34.03;;;20.85;;
19903;SDS011;10114;50.970;4.962;2023-05-14T11:27:38;32.50;;;22.42;;
19903;SDS011;10114;50.970;4.962;2023-05-14T11:30:11;32.78;;;21.50;;
19903;SDS011;10114;50.970;4.962;2023-05-14T11:32:37;31.70;;;21.20;;
19903;SDS011;10114;50.970;4.962;2023-05-14T11:35:03;34.10;;;20.63;;
19903;SDS011;10114;50.970;4.962;2023-05-14T11:37:29;27.65;;;19.63;;
19903;SDS011;10114;50.970;4.962;2023-05-14T11:39:58;27.23;;;18.73;;
19903;SDS011;10114;50.970;4.962;2023-05-14T11:42:24;36.78;;;20.52;;
19903;SDS011;10114;50.970;4.962;2023-05-14T11:44:50;28.55;;;19.17;;
19903;SDS011;10114;50.970;4.962;2023-05-14T11:47:18;24.70;;;17.48;;
19903;SDS011;10114;50.970;4.962;2023-05-14T11:49:45;28.15;;;19.23;;
19903;SDS011;10114;50.970;4.962;2023-05-14T11:52:11;26.35;;;18.50;;
19903;SDS011;10114;50.970;4.962;2023-05-14T11:54:43;28.23;;;17.15;;
19903;SDS011;10114;50.970;4.962;2023-05-14T11:57:19;27.25;;;16.35;;
19903;SDS011;10114;50.970;4.962;2023-05-14T11:59:46;29.85;;;17.35;;
19903;SDS011;10114;50.970;4.962;2023-05-14T12:02:14;24.45;;;16.75;;
19903;SDS011;10114;50.970;4.962;2023-05-14T12:04:40;23.33;;;15.82;;
19903;SDS011;10114;50.970;4.962;2023-05-14T12:07:11;24.95;;;15.45;;
19903;SDS011;10114;50.970;4.962;2023-05-14T12:09:40;20.52;;;14.70;;
19903;SDS011;10114;50.970;4.962;2023-05-14T12:12:10;25.90;;;16.73;;
19903;SDS011;10114;50.970;4.962;2023-05-14T12:14:40;26.38;;;17.55;;
19903;SDS011;10114;50.970;4.962;2023-05-14T12:17:13;25.52;;;15.98;;
19903;SDS011;10114;50.970;4.962;2023-05-14T12:19:39;28.52;;;17.08;;
19903;SDS011;10114;50.970;4.962;2023-05-14T12:22:06;23.20;;;16.55;;
19903;SDS011;10114;50.970;4.962;2023-05-14T12:24:33;23.08;;;15.95;;
19903;SDS011;10114;50.970;4.962;2023-05-14T12:26:59;23.17;;;15.73;;
19903;SDS011;10114;50.970;4.962;2023-05-14T12:29:26;19.45;;;14.48;;
19903;SDS011;10114;50.970;4.962;2023-05-14T12:31:52;21.58;;;14.85;;
19903;SDS011;10114;50.970;4.962;2023-05-14T12:34:18;20.98;;;14.10;;
19903;SDS011;10114;50.970;4.962;2023-05-14T12:36:44;20.02;;;13.93;;
19903;SDS011;10114;50.970;4.962;2023-05-14T12:39:10;21.95;;;14.15;;
19903;SDS011;10114;50.970;4.962;2023-05-14T12:41:36;20.77;;;14.32;;
19903;SDS011;10114;50.970;4.962;2023-05-14T12:44:05;24.08;;;13.70;;
19903;SDS011;10114;50.970;4.962;2023-05-14T12:46:31;17.77;;;13.63;;
19903;SDS011;10114;50.970;4.962;2023-05-14T12:48:58;23.92;;;13.55;;
19903;SDS011;10114;50.970;4.962;2023-05-14T12:51:24;19.13;;;12.75;;
19903;SDS011;10114;50.970;4.962;2023-05-14T12:53:50;21.77;;;13.13;;
19903;SDS011;10114;50.970;4.962;2023-05-14T12:56:18;18.08;;;12.55;;
19903;SDS011;10114;50.970;4.962;2023-05-14T12:58:44;16.88;;;11.70;;
19903;SDS011;10114;50.970;4.962;2023-05-14T13:01:13;17.30;;;11.57;;
19903;SDS011;10114;50.970;4.962;2023-05-14T13:03:39;15.50;;;10.38;;
19903;SDS011;10114;50.970;4.962;2023-05-14T13:06:05;16.92;;;10.63;;
19903;SDS011;10114;50.970;4.962;2023-05-14T13:08:31;14.18;;;9.68;;
19903;SDS011;10114;50.970;4.962;2023-05-14T13:10:58;13.95;;;9.73;;
19903;SDS011;10114;50.970;4.962;2023-05-14T13:13:24;14.68;;;10.23;;
19903;SDS011;10114;50.970;4.962;2023-05-14T13:15:50;15.88;;;10.05;;
19903;SDS011;10114;50.970;4.962;2023-05-14T13:18:17;16.58;;;9.90;;
19903;SDS011;10114;50.970;4.962;2023-05-14T13:20:45;15.73;;;10.27;;
19903;SDS011;10114;50.970;4.962;2023-05-14T13:23:12;16.40;;;9.90;;
19903;SDS011;10114;50.970;4.962;2023-05-14T13:25:38;14.20;;;8.13;;
19903;SDS011;10114;50.970;4.962;2023-05-14T13:28:04;10.32;;;7.35;;
19903;SDS011;10114;50.970;4.962;2023-05-14T13:30:30;13.32;;;8.32;;
19903;SDS011;10114;50.970;4.962;2023-05-14T13:32:57;15.73;;;8.23;;
19903;SDS011;10114;50.970;4.962;2023-05-14T13:35:23;13.90;;;9.07;;
19903;SDS011;10114;50.970;4.962;2023-05-14T13:37:49;12.77;;;8.85;;
19903;SDS011;10114;50.970;4.962;2023-05-14T13:40:15;14.65;;;8.18;;
19903;SDS011;10114;50.970;4.962;2023-05-14T13:42:41;11.73;;;7.50;;
19903;SDS011;10114;50.970;4.962;2023-05-14T13:45:08;10.90;;;7.50;;
19903;SDS011;10114;50.970;4.962;2023-05-14T13:47:35;10.25;;;6.75;;
19903;SDS011;10114;50.970;4.962;2023-05-14T13:50:01;13.00;;;8.50;;
19903;SDS011;10114;50.970;4.962;2023-05-14T13:52:27;14.43;;;9.25;;
19903;SDS011;10114;50.970;4.962;2023-05-14T13:54:53;14.43;;;9.32;;
19903;SDS011;10114;50.970;4.962;2023-05-14T13:57:20;14.07;;;9.88;;
19903;SDS011;10114;50.970;4.962;2023-05-14T13:59:47;13.85;;;8.50;;
19903;SDS011;10114;50.970;4.962;2023-05-14T14:02:13;12.10;;;8.43;;
19903;SDS011;10114;50.970;4.962;2023-05-14T14:04:39;12.55;;;8.32;;
19903;SDS011;10114;50.970;4.962;2023-05-14T14:07:05;13.98;;;7.90;;
19903;SDS011;10114;50.970;4.962;2023-05-14T14:09:32;9.48;;;6.97;;
19903;SDS011;10114;50.970;4.962;2023-05-14T14:12:03;12.18;;;6.65;;
19903;SDS011;10114;50.970;4.962;2023-05-14T14:14:30;11.30;;;7.00;;
19903;SDS011;10114;50.970;4.962;2023-05-14T14:16:56;13.73;;;7.45;;
19903;SDS011;10114;50.970;4.962;2023-05-14T14:19:22;10.90;;;6.10;;
19903;SDS011;10114;50.970;4.962;2023-05-14T14:21:48;20.50;;;7.93;;
19903;SDS011;10114;50.970;4.962;2023-05-14T14:24:14;11.00;;;7.07;;